sim
Sign-in with your pilot id or email,
or register
Callsign
Passwort

Schedule Details

Flight Number: DLH481 (2)
Departure: Denver International Airport (KDEN) at 23:30
Arrival: Munich Airport (EDDM) at 09:25
Route: Lufthansa Passenger Schedule. Enter filed route here before submitting Pirep.

Weather Information
Getting current METAR information for KDEN 302353Z 05010KT 10SM BKN140 BKN200 19/00 A3031 RMK AO2 SLP211 T01890000 10233 20189 53003
Getting current METAR information for EDDM 302350Z 06002KT 3000 0500NE R08L/0800N R08R/0500N BCFG NSC 05/04 Q1012 NOSIG

Schedule Frequency

Route Map